Time;durP1;ratioP1;P1;durP2;ratioP2;P2;SDS_P1;SDS_P2;PMS_P1;PMS_P2;Temp;Humidity;BMP_temperature;BMP_pressure;BME280_temperature;BME280_humidity;BME280_pressure;Samples;Min_cycle;Max_cycle;Signal;HPM_P1;HPM_P2
2022/08/02 00:01:51;;;;;;;8.00;1.95;;;;;;;17.91;52.98;101631.50;3591292;39;20055;-64
2022/08/02 00:04:16;;;;;;;4.55;1.75;;;;;;;17.88;51.97;101625.44;3591744;39;20073;-64
2022/08/02 00:06:43;;;;;;;2.97;1.40;;;;;;;17.84;52.86;101622.97;3592928;39;20159;-64
2022/08/02 00:09:08;;;;;;;3.58;1.80;;;;;;;17.82;52.68;101619.53;3592598;39;20100;-64
2022/08/02 00:11:34;;;;;;;6.18;1.75;;;;;;;17.91;52.91;101625.19;3593505;39;20369;-64
2022/08/02 00:14:00;;;;;;;3.00;1.50;;;;;;;17.92;52.80;101616.03;3592391;39;20055;-64
2022/08/02 00:16:26;;;;;;;5.40;1.75;;;;;;;17.86;53.00;101620.16;3592264;39;20119;-64
2022/08/02 00:18:52;;;;;;;4.00;1.60;;;;;;;17.82;52.63;101611.38;3590621;39;20055;-65
2022/08/02 00:21:17;;;;;;;7.93;1.88;;;;;;;17.77;53.21;101613.59;3589749;39;22255;-64
2022/08/02 00:23:43;;;;;;;4.28;1.70;;;;;;;17.79;52.16;101617.06;3591807;39;20068;-64
2022/08/02 00:26:09;;;;;;;4.70;1.65;;;;;;;17.80;52.23;101623.34;3592210;39;20058;-64
2022/08/02 00:28:34;;;;;;;3.33;1.30;;;;;;;17.81;51.86;101625.94;3591634;39;20078;-64
2022/08/02 00:31:00;;;;;;;1.85;1.50;;;;;;;17.83;52.48;101629.41;3589579;39;20115;-64
2022/08/02 00:33:26;;;;;;;2.75;1.58;;;;;;;17.59;52.46;101595.97;3590430;39;20297;-65
2022/08/02 00:35:52;;;;;;;3.63;1.45;;;;;;;17.80;50.90;101635.09;3590776;39;20759;-65
2022/08/02 00:38:18;;;;;;;2.50;1.50;;;;;;;17.81;51.86;101634.09;3592107;39;20071;-65
2022/08/02 00:40:49;;;;;;;2.38;1.50;;;;;;;17.85;52.36;101627.41;3591343;39;20090;-65
2022/08/02 00:43:15;;;;;;;2.72;1.33;;;;;;;17.84;52.28;101622.13;3589954;39;20062;-65
2022/08/02 00:45:42;;;;;;;3.67;1.42;;;;;;;17.85;51.46;101630.13;3592878;39;20171;-65
2022/08/02 00:48:10;;;;;;;2.15;1.30;;;;;;;17.88;51.42;101630.88;3591274;39;20157;-65
2022/08/02 00:50:38;;;;;;;2.17;1.38;;;;;;;17.15;52.21;101497.06;3593732;39;20137;-65
2022/08/02 00:53:05;;;;;;;2.90;1.40;;;;;;;17.89;51.87;101617.19;3592744;39;20067;-65
2022/08/02 00:55:31;;;;;;;2.53;1.30;;;;;;;17.76;51.99;101584.63;3593038;39;20075;-65
2022/08/02 00:57:57;;;;;;;5.25;1.40;;;;;;;17.92;52.33;101611.50;3592810;39;20054;-65
2022/08/02 01:00:23;;;;;;;4.95;1.58;;;;;;;17.92;51.58;101602.44;3595383;39;20406;-64
2022/08/02 01:02:49;;;;;;;3.28;1.23;;;;;;;17.91;51.46;101601.59;3593915;39;20055;-65
2022/08/02 01:05:15;;;;;;;7.30;1.65;;;;;;;17.91;51.26;101590.69;3594851;39;20103;-64
2022/08/02 01:07:41;;;;;;;4.43;1.58;;;;;;;17.91;50.97;101593.44;3594731;39;20283;-65
2022/08/02 01:10:08;;;;;;;4.88;1.50;;;;;;;17.94;49.38;101595.03;3592421;39;20144;-65
2022/08/02 01:12:34;;;;;;;1.88;1.40;;;;;;;17.98;50.73;101593.78;3594535;39;20062;-65
2022/08/02 01:15:07;;;;;;;3.92;1.60;;;;;;;18.01;49.73;101591.69;3593999;39;20066;-64
2022/08/02 01:18:00;;;;;;;4.72;1.38;;;;;;;18.03;50.79;101600.59;3592911;39;20448;-64
2022/08/02 01:21:32;;;;;;;3.83;1.52;;;;;;;18.04;50.05;101596.88;3592730;39;20440;-63
2022/08/02 01:24:27;;;;;;;5.65;1.45;;;;;;;18.05;50.20;101608.66;3560941;40;20056;-64
2022/08/02 01:27:35;;;;;;;4.55;1.42;;;;;;;17.74;50.70;101559.41;3590302;39;20048;-63
2022/08/02 01:30:03;;;;;;;2.80;1.10;;;;;;;17.99;50.74;101600.97;3590512;39;20059;-64
2022/08/02 01:32:40;;;;;;;6.50;1.60;;;;;;;18.01;51.75;101602.56;3592823;39;20070;-63
2022/08/02 01:35:18;;;;;;;6.38;1.65;;;;;;;18.05;50.68;101603.22;3589912;39;20422;-63
2022/08/02 01:38:15;;;;;;;5.53;1.45;;;;;;;18.03;51.24;101606.03;3584479;39;20091;-63
2022/08/02 01:40:45;;;;;;;5.00;1.58;;;;;;;18.02;52.08;101600.75;3595684;39;20086;-63
2022/08/02 01:43:14;;;;;;;3.33;1.80;;;;;;;18.02;50.78;101595.28;3590679;39;20070;-63
2022/08/02 01:45:44;;;;;;;4.55;1.33;;;;;;;17.99;50.71;101595.53;3594601;39;20471;-63
2022/08/02 01:48:15;;;;;;;3.97;1.40;;;;;;;17.94;51.65;101587.72;3594517;39;20353;-63
2022/08/02 01:50:45;;;;;;;4.93;1.83;;;;;;;17.94;51.67;101586.88;3593690;39;20079;-63
2022/08/02 01:53:17;;;;;;;4.55;1.45;;;;;;;17.86;52.36;101585.66;3593547;39;20047;-63
2022/08/02 01:55:49;;;;;;;4.28;1.60;;;;;;;17.83;52.78;101585.03;3594450;39;20055;-63
2022/08/02 01:58:21;;;;;;;3.42;1.80;;;;;;;17.80;52.44;101575.25;3592547;39;20051;-63
2022/08/02 02:00:50;;;;;;;3.10;1.55;;;;;;;17.78;52.62;101579.09;3593355;39;20403;-63
2022/08/02 02:03:23;;;;;;;5.28;1.65;;;;;;;17.76;52.40;101579.19;3580139;39;20048;-64
2022/08/02 02:05:54;;;;;;;3.22;1.52;;;;;;;17.67;52.53;101552.72;3590410;39;20402;-63
2022/08/02 02:08:27;;;;;;;5.45;1.80;;;;;;;17.61;53.13;101545.06;3592379;39;20131;-63
2022/08/02 02:10:56;;;;;;;5.07;1.83;;;;;;;17.78;53.29;101565.47;3594390;39;20369;-63
2022/08/02 02:13:26;;;;;;;3.13;1.70;;;;;;;17.77;53.01;101570.06;3592262;39;20357;-64
2022/08/02 02:15:55;;;;;;;5.82;1.92;;;;;;;17.76;53.76;101568.31;3590703;39;20059;-63
2022/08/02 02:18:28;;;;;;;3.85;1.85;;;;;;;17.76;53.52;101568.31;3591855;39;20063;-63
2022/08/02 02:20:56;;;;;;;4.78;1.60;;;;;;;17.76;53.00;101557.44;3595413;39;20055;-63
2022/08/02 02:23:22;;;;;;;3.97;1.58;;;;;;;17.53;53.58;101510.31;3593539;39;20395;-63
2022/08/02 02:25:48;;;;;;;4.05;1.70;;;;;;;17.76;54.58;101545.66;3595178;39;20163;-63
2022/08/02 02:28:29;;;;;;;5.38;1.80;;;;;;;17.79;53.77;101532.75;3582906;39;20051;-63
2022/08/02 02:31:05;;;;;;;5.47;1.85;;;;;;;17.77;54.19;101534.72;3594231;39;20055;-63
2022/08/02 02:33:39;;;;;;;4.53;1.77;;;;;;;17.79;54.71;101546.34;3594610;39;20063;-63
2022/08/02 02:36:09;;;;;;;4.03;1.70;;;;;;;17.78;54.66;101533.72;3592085;39;20124;-63
2022/08/02 02:38:37;;;;;;;6.57;1.98;;;;;;;17.73;54.40;101538.66;3593368;39;20051;-63
2022/08/02 02:41:05;;;;;;;6.07;2.33;;;;;;;16.98;54.92;101416.06;3592535;39;20055;-63
2022/08/02 02:43:36;;;;;;;6.18;3.33;;;;;;;17.70;54.51;101546.19;3583076;39;20063;-63
2022/08/02 02:46:07;;;;;;;5.43;3.40;;;;;;;17.67;55.20;101541.84;3593852;39;20098;-63
2022/08/02 02:48:35;;;;;;;6.15;2.67;;;;;;;17.65;54.89;101543.81;3591687;39;20080;-63
2022/08/02 02:51:05;;;;;;;5.35;2.03;;;;;;;17.63;55.56;101540.34;3592094;39;20089;-63
2022/08/02 02:53:32;;;;;;;3.42;1.60;;;;;;;17.58;56.31;101542.59;3589756;39;20711;-63
2022/08/02 02:56:00;;;;;;;8.15;2.03;;;;;;;17.54;56.13;101541.97;3590825;39;20047;-63
2022/08/02 02:58:27;;;;;;;6.68;2.15;;;;;;;17.39;56.44;101526.88;3590855;39;20070;-63
2022/08/02 03:03:42;;;;;;;4.68;2.03;;;;;;;17.14;56.93;101488.06;3593412;39;20058;-64
2022/08/02 03:06:08;;;;;;;8.23;2.05;;;;;;;17.40;57.72;101540.34;3589940;39;20365;-64
2022/08/02 03:08:34;;;;;;;4.93;2.10;;;;;;;17.26;57.68;101513.41;3593359;39;20064;-64
2022/08/02 03:11:00;;;;;;;3.75;2.00;;;;;;;17.28;56.64;101522.28;3593591;39;20055;-64
2022/08/02 03:13:27;;;;;;;5.70;1.90;;;;;;;17.27;57.42;101534.16;3592673;39;20066;-64
2022/08/02 03:15:53;;;;;;;5.18;2.17;;;;;;;16.98;57.39;101478.53;3592825;39;20341;-64
2022/08/02 03:18:30;;;;;;;5.13;1.90;;;;;;;16.96;57.56;101485.91;3590502;39;20060;-64
2022/08/02 03:21:06;;;;;;;2.90;1.63;;;;;;;17.18;58.27;101532.16;3585805;39;20125;-64
2022/08/02 03:23:33;;;;;;;3.50;1.85;;;;;;;17.17;57.38;101527.72;3595287;39;20087;-64
2022/08/02 03:26:00;;;;;;;6.70;1.98;;;;;;;16.85;57.33;101465.91;3592991;39;20043;-63
2022/08/02 03:28:26;;;;;;;5.63;2.05;;;;;;;17.20;57.95;101532.03;3596657;39;20047;-64
2022/08/02 03:30:52;;;;;;;2.83;1.77;;;;;;;17.19;57.20;101533.91;3592954;39;20062;-64
2022/08/02 03:33:21;;;;;;;6.28;2.30;;;;;;;17.13;58.09;101537.09;3589139;39;20102;-64
2022/08/02 03:35:49;;;;;;;7.55;2.10;;;;;;;17.10;58.60;101537.34;3591546;39;20059;-64
2022/08/02 03:38:20;;;;;;;4.18;1.90;;;;;;;17.08;58.67;101532.00;3592654;39;20059;-64
2022/08/02 03:40:48;;;;;;;5.55;2.08;;;;;;;17.05;58.05;101521.38;3589700;39;20069;-64
2022/08/02 03:43:16;;;;;;;4.82;1.80;;;;;;;17.02;58.07;101512.59;3588093;39;20137;-64
2022/08/02 03:45:49;;;;;;;4.88;2.40;;;;;;;17.01;58.62;101516.31;3591261;39;20232;-64
2022/08/02 03:48:16;;;;;;;4.63;2.08;;;;;;;16.99;59.13;101513.69;3588466;39;20566;-63
2022/08/02 03:50:46;;;;;;;4.88;2.10;;;;;;;16.97;57.93;101503.94;3591353;39;20085;-62
2022/08/02 03:53:15;;;;;;;6.50;2.25;;;;;;;17.01;58.26;101505.44;3592359;39;20061;-62
2022/08/02 03:55:41;;;;;;;3.92;2.40;;;;;;;17.03;59.04;101514.31;3590933;39;20056;-62
2022/08/02 03:58:07;;;;;;;5.40;2.60;;;;;;;16.99;59.08;101507.41;3591749;39;20055;-62
2022/08/02 04:00:32;;;;;;;5.95;2.65;;;;;;;16.85;59.41;101479.47;3590440;39;20136;-62
2022/08/02 04:02:58;;;;;;;4.20;2.50;;;;;;;17.08;59.50;101502.13;3590534;39;20067;-62
2022/08/02 04:05:24;;;;;;;4.82;2.67;;;;;;;17.03;59.47;101489.88;3589454;39;20550;-62
2022/08/02 04:07:50;;;;;;;6.30;2.50;;;;;;;17.12;59.71;101503.59;3588430;39;20056;-62
2022/08/02 04:10:16;;;;;;;5.43;2.60;;;;;;;17.14;59.11;101498.91;3587575;39;20059;-62
2022/08/02 04:12:43;;;;;;;7.47;3.00;;;;;;;17.15;59.46;101491.63;3587402;39;20055;-62
2022/08/02 04:15:14;;;;;;;4.88;2.63;;;;;;;17.22;58.72;101498.34;3590476;39;20059;-62
2022/08/02 04:17:55;;;;;;;3.45;2.50;;;;;;;17.24;59.00;101501.78;3592453;39;20051;-62
2022/08/02 04:20:28;;;;;;;5.75;2.70;;;;;;;17.25;59.36;101481.75;3585039;39;20054;-62
2022/08/02 04:23:06;;;;;;;6.55;2.90;;;;;;;17.34;59.22;101493.75;3596385;39;20096;-62
2022/08/02 04:25:34;;;;;;;10.38;2.75;;;;;;;17.35;59.08;101493.66;3594179;39;20055;-62
2022/08/02 04:28:01;;;;;;;7.00;2.60;;;;;;;17.37;58.83;101499.81;3592224;39;20059;-62
2022/08/02 04:30:29;;;;;;;5.95;3.10;;;;;;;17.40;58.95;101496.84;3596699;39;20332;-63
2022/08/02 04:32:55;;;;;;;7.35;2.90;;;;;;;17.43;58.73;101500.31;3595171;39;20063;-62
2022/08/02 04:35:22;;;;;;;7.30;2.42;;;;;;;17.47;59.81;101501.78;3591761;39;20052;-62
2022/08/02 04:37:48;;;;;;;5.65;2.60;;;;;;;17.49;59.55;101510.69;3596353;39;20047;-62
2022/08/02 04:40:14;;;;;;;6.90;2.97;;;;;;;17.30;58.97;101473.25;3597448;39;20055;-62
2022/08/02 04:42:40;;;;;;;7.20;3.20;;;;;;;17.54;59.72;101513.94;3594400;39;20060;-62
2022/08/02 04:45:08;;;;;;;10.52;3.28;;;;;;;17.55;59.94;101515.66;3594971;39;20148;-62
2022/08/02 04:47:34;;;;;;;7.10;3.20;;;;;;;17.59;59.83;101509.81;3595019;39;20047;-63
2022/08/02 04:50:00;;;;;;;8.77;3.63;;;;;;;17.40;60.66;101463.38;3583617;40;20055;-62
2022/08/02 04:52:26;;;;;;;6.63;3.35;;;;;;;17.63;60.97;101503.19;3594320;39;20074;-63
2022/08/02 04:54:52;;;;;;;7.93;3.20;;;;;;;17.62;60.79;101496.00;3595389;39;20502;-63
2022/08/02 05:00:07;;;;;;;7.30;3.65;;;;;;;17.61;61.60;101493.41;3596849;39;20050;-62
2022/08/02 05:02:33;;;;;;;7.63;3.78;;;;;;;17.37;61.52;101452.75;3594343;39;20130;-63
2022/08/02 05:04:59;;;;;;;7.22;3.78;;;;;;;17.67;61.94;101492.91;3597841;39;20362;-62
2022/08/02 05:07:24;;;;;;;7.47;4.10;;;;;;;17.69;62.14;101490.06;3599928;39;20104;-63
2022/08/02 05:09:50;;;;;;;9.32;4.53;;;;;;;17.70;61.83;101492.66;3597205;39;20282;-62
2022/08/02 05:12:15;;;;;;;9.15;4.53;;;;;;;17.74;62.34;101498.72;3592631;39;20055;-62
2022/08/02 05:14:41;;;;;;;9.85;4.97;;;;;;;17.35;62.35;101433.00;3591845;39;20416;-62
2022/08/02 05:17:06;;;;;;;11.77;4.78;;;;;;;17.79;62.33;101502.81;3595939;39;20048;-62
2022/08/02 05:19:32;;;;;;;8.82;4.70;;;;;;;17.84;62.87;101494.28;3602398;39;20100;-62
2022/08/02 05:21:58;;;;;;;13.63;4.88;;;;;;;17.88;62.65;101495.75;3597700;39;20051;-62
2022/08/02 05:24:23;;;;;;;11.77;4.70;;;;;;;17.91;62.75;101492.78;3596466;39;20052;-62
2022/08/02 05:26:49;;;;;;;10.10;4.78;;;;;;;17.98;63.08;101490.41;3598707;39;20309;-62
2022/08/02 05:29:15;;;;;;;13.38;5.55;;;;;;;18.03;63.46;101490.91;3595324;39;20058;-62
2022/08/02 05:31:41;;;;;;;9.85;4.90;;;;;;;18.08;63.04;101485.97;3598202;39;20071;-62
2022/08/02 05:34:07;;;;;;;8.20;5.15;;;;;;;17.89;63.86;101442.22;3590705;39;20060;-62
2022/08/02 05:36:33;;;;;;;7.70;5.10;;;;;;;18.17;63.26;101468.84;3589451;39;20137;-62
2022/08/02 05:38:58;;;;;;;6.60;4.90;;;;;;;18.24;63.49;101480.97;3596978;39;20354;-61
2022/08/02 05:41:24;;;;;;;9.93;5.32;;;;;;;18.30;63.54;101477.72;3594086;39;20104;-62
2022/08/02 05:43:49;;;;;;;8.85;5.00;;;;;;;18.38;64.20;101476.22;3596705;39;20441;-62
2022/08/02 05:46:15;;;;;;;9.93;5.00;;;;;;;18.41;64.14;101476.81;3594752;39;20047;-62
2022/08/02 05:48:41;;;;;;;7.50;5.15;;;;;;;18.47;63.76;101478.16;3593899;39;20420;-62
2022/08/02 05:51:21;;;;;;;8.65;5.40;;;;;;;18.51;63.82;101485.06;3595034;39;20055;-62
2022/08/02 05:54:00;;;;;;;8.05;5.57;;;;;;;18.61;64.59;101486.00;3596083;39;20444;-62
2022/08/02 05:56:37;;;;;;;10.35;4.97;;;;;;;18.73;64.11;101486.84;3595040;39;20393;-61
2022/08/02 05:59:16;;;;;;;8.40;5.10;;;;;;;18.80;64.68;101493.50;3595623;39;20051;-62
2022/08/02 06:01:47;;;;;;;7.78;4.80;;;;;;;17.64;63.42;101278.38;3594054;39;20079;-62
2022/08/02 06:04:25;;;;;;;7.55;5.57;;;;;;;19.04;64.30;101506.00;3598289;39;20061;-62
2022/08/02 06:06:58;;;;;;;11.20;5.70;;;;;;;19.04;64.21;101500.56;3598768;39;20254;-61
2022/08/02 06:09:26;;;;;;;5.70;4.78;;;;;;;19.15;63.81;101504.06;3594842;39;20056;-62
2022/08/02 06:11:56;;;;;;;10.85;5.70;;;;;;;19.13;63.79;101489.72;3592209;39;20054;-62
2022/08/02 06:14:22;;;;;;;8.63;5.47;;;;;;;19.30;63.32;101507.31;3591285;39;20059;-62
2022/08/02 06:16:50;;;;;;;8.50;5.90;;;;;;;19.21;63.26;101478.13;3594386;39;20527;-62
2022/08/02 06:19:18;;;;;;;9.50;5.88;;;;;;;19.48;63.81;101513.00;3586706;40;20070;-62
2022/08/02 06:21:47;;;;;;;9.05;5.07;;;;;;;19.53;63.12;101524.34;3582576;39;20500;-62
2022/08/02 06:24:21;;;;;;;9.48;5.95;;;;;;;19.59;63.86;101518.34;3596574;39;20044;-62
2022/08/02 06:26:51;;;;;;;7.55;5.40;;;;;;;19.65;62.85;101512.38;3596375;39;20387;-61
2022/08/02 06:29:19;;;;;;;7.55;5.60;;;;;;;19.60;63.03;101492.84;3597184;39;20091;-62
2022/08/02 06:31:46;;;;;;;7.10;5.85;;;;;;;19.69;62.77;101508.41;3594380;39;20279;-62
2022/08/02 06:34:12;;;;;;;9.55;5.72;;;;;;;19.79;63.63;101502.09;3592999;39;20362;-62
2022/08/02 06:37:07;;;;;;;8.23;6.50;;;;;;;19.88;63.10;101496.66;3589592;39;20055;-62
2022/08/02 06:39:47;;;;;;;8.07;5.80;;;;;;;20.00;63.07;101497.44;3598504;39;20059;-62
2022/08/02 06:42:21;;;;;;;8.70;6.05;;;;;;;20.10;62.72;101501.03;3592234;39;20059;-62
2022/08/02 06:44:47;;;;;;;11.23;6.20;;;;;;;20.22;61.92;101506.38;3597077;39;20390;-62
2022/08/02 06:47:12;;;;;;;9.88;6.28;;;;;;;20.36;61.86;101495.03;3592983;39;20406;-62
2022/08/02 06:49:42;;;;;;;11.27;6.85;;;;;;;20.52;62.60;101492.66;3594624;39;21485;-62
2022/08/02 06:52:07;;;;;;;9.85;6.97;;;;;;;20.68;62.05;101493.94;3593001;39;20124;-62
2022/08/02 06:54:34;;;;;;;9.57;7.00;;;;;;;20.90;61.42;101501.84;3593977;39;20067;-62
2022/08/02 06:57:00;;;;;;;11.52;6.95;;;;;;;21.14;61.70;101492.31;3597656;39;20051;-62
2022/08/02 06:59:26;;;;;;;11.38;6.90;;;;;;;21.29;60.96;101496.31;3591777;39;20310;-62
2022/08/02 07:01:51;;;;;;;10.90;7.45;;;;;;;21.44;60.89;101486.66;3596774;39;20165;-62
2022/08/02 07:04:17;;;;;;;11.93;7.75;;;;;;;21.52;60.70;101497.69;3591514;39;20059;-62
2022/08/02 07:06:43;;;;;;;12.55;7.50;;;;;;;21.72;60.90;101494.88;3597405;39;20081;-62
2022/08/02 07:09:08;;;;;;;10.07;7.45;;;;;;;21.62;60.69;101450.28;3589206;39;20059;-62
2022/08/02 07:11:34;;;;;;;10.55;7.55;;;;;;;22.09;59.95;101496.69;3596061;39;20099;-62
2022/08/02 07:13:59;;;;;;;10.48;7.85;;;;;;;22.18;59.13;101507.63;3597505;39;20301;-64
2022/08/02 07:16:25;;;;;;;9.57;7.95;;;;;;;22.24;58.98;101504.28;3594596;39;20059;-61
2022/08/02 07:18:51;;;;;;;8.20;6.38;;;;;;;22.45;58.41;101506.72;3597941;39;20344;-61
2022/08/02 07:21:16;;;;;;;11.73;6.93;;;;;;;22.54;57.24;101490.34;3592713;39;20055;-62
2022/08/02 07:23:42;;;;;;;11.82;6.78;;;;;;;22.65;57.63;101488.25;3596859;39;20055;-62
2022/08/02 07:26:07;;;;;;;8.20;6.13;;;;;;;22.73;57.06;101495.66;3595248;39;20059;-62
2022/08/02 07:28:33;;;;;;;8.15;6.22;;;;;;;22.70;56.26;101483.13;3593882;39;20071;-62
2022/08/02 07:30:58;;;;;;;7.03;5.93;;;;;;;22.69;57.04;101483.28;3591074;39;20051;-62
2022/08/02 07:33:26;;;;;;;8.35;5.93;;;;;;;22.74;56.96;101482.81;3592437;39;20397;-63
2022/08/02 07:35:51;;;;;;;8.93;5.05;;;;;;;22.88;57.33;101482.25;3588391;39;20410;-62
2022/08/02 07:38:17;;;;;;;9.15;5.47;;;;;;;23.04;56.87;101481.56;3597917;39;20057;-62
2022/08/02 07:40:42;;;;;;;8.57;5.18;;;;;;;23.19;56.16;101481.84;3593968;39;20079;-62
2022/08/02 07:43:08;;;;;;;6.78;5.18;;;;;;;23.28;55.66;101480.84;3593597;39;20095;-62
2022/08/02 07:45:34;;;;;;;6.38;5.53;;;;;;;23.37;55.47;101482.59;3594889;39;20063;-62
2022/08/02 07:47:59;;;;;;;5.82;5.03;;;;;;;23.43;55.32;101483.84;3592902;39;20062;-63
2022/08/02 07:50:27;;;;;;;6.45;5.05;;;;;;;23.37;55.49;101450.56;3596360;39;20060;-62
2022/08/02 07:52:52;;;;;;;8.45;4.75;;;;;;;23.69;54.11;101492.97;3593427;39;20055;-62
2022/08/02 07:55:18;;;;;;;8.43;5.20;;;;;;;23.80;53.97;101489.91;3595945;39;20055;-62
2022/08/02 07:57:45;;;;;;;4.82;4.32;;;;;;;24.06;53.58;101495.31;3597942;39;20048;-63
2022/08/02 08:00:11;;;;;;;6.00;3.90;;;;;;;24.37;53.46;101491.97;3594103;39;20263;-62
2022/08/02 08:02:37;;;;;;;4.30;3.90;;;;;;;24.50;52.63;101486.00;3588431;39;20064;-63
2022/08/02 08:05:05;;;;;;;5.53;4.10;;;;;;;24.76;52.28;101497.69;3594457;39;20052;-63
2022/08/02 08:07:31;;;;;;;4.03;3.60;;;;;;;24.98;51.72;101489.78;3599002;39;20039;-63
2022/08/02 08:09:58;;;;;;;5.53;3.13;;;;;;;25.13;50.92;101482.59;3597466;39;20390;-64
2022/08/02 08:12:24;;;;;;;3.72;3.28;;;;;;;25.35;50.16;101489.25;3595882;39;20121;-63
2022/08/02 08:14:49;;;;;;;4.20;3.22;;;;;;;25.22;49.38;101465.03;3598537;39;20290;-63
2022/08/02 08:17:16;;;;;;;3.60;2.85;;;;;;;25.43;49.10;101494.72;3594063;39;20313;-63
2022/08/02 08:19:41;;;;;;;3.67;2.55;;;;;;;25.44;48.29;101490.97;3596313;39;20079;-63
2022/08/02 08:22:07;;;;;;;3.03;2.33;;;;;;;25.41;48.35;101493.22;3597852;39;20124;-63
2022/08/02 08:24:32;;;;;;;4.78;2.90;;;;;;;25.53;47.34;101488.16;3595970;39;20048;-63
2022/08/02 08:26:58;;;;;;;4.55;2.85;;;;;;;25.54;47.50;101493.50;3592171;39;20051;-65
2022/08/02 08:29:25;;;;;;;4.10;2.40;;;;;;;25.49;46.84;101482.16;3598530;39;20047;-63
2022/08/02 08:31:51;;;;;;;4.72;2.45;;;;;;;25.63;47.19;101484.19;3594883;39;20097;-62
2022/08/02 08:34:16;;;;;;;2.50;2.30;;;;;;;25.77;46.74;101473.47;3595527;39;20385;-63
2022/08/02 08:36:42;;;;;;;3.50;1.90;;;;;;;26.07;45.05;101486.44;3591069;39;20068;-63
2022/08/02 08:39:09;;;;;;;2.08;1.83;;;;;;;26.13;45.04;101482.97;3594739;39;20106;-63
2022/08/02 08:41:36;;;;;;;2.00;1.65;;;;;;;26.08;44.06;101455.06;3594653;39;20047;-62
2022/08/02 08:44:02;;;;;;;2.10;1.80;;;;;;;26.12;44.05;101453.66;3596238;39;20523;-63
2022/08/02 08:46:33;;;;;;;5.30;2.28;;;;;;;26.22;44.88;101481.00;3595640;39;20054;-63
2022/08/02 08:49:11;;;;;;;2.53;1.60;;;;;;;26.36;43.48;101495.91;3594948;39;20051;-63
2022/08/02 08:51:42;;;;;;;3.17;1.80;;;;;;;26.46;43.32;101482.75;3597829;39;20065;-62
2022/08/02 08:54:15;;;;;;;2.95;1.77;;;;;;;26.56;43.12;101488.03;3595911;39;20059;-63
2022/08/02 08:56:42;;;;;;;2.17;1.92;;;;;;;26.53;43.29;101469.97;3584842;39;20066;-63
2022/08/02 08:59:09;;;;;;;3.10;1.95;;;;;;;26.56;44.21;101463.22;3593356;39;20140;-63
2022/08/02 09:01:35;;;;;;;2.92;1.65;;;;;;;26.68;43.69;101489.34;3599006;39;20098;-62
2022/08/02 09:04:01;;;;;;;7.15;1.80;;;;;;;26.71;43.11;101486.22;3594235;39;20059;-62
2022/08/02 09:06:27;;;;;;;4.05;1.95;;;;;;;26.74;42.41;101479.47;3598475;39;20164;-63
2022/08/02 09:08:52;;;;;;;2.40;1.63;;;;;;;26.87;42.62;101479.69;3596727;39;20095;-62
2022/08/02 09:11:24;;;;;;;2.88;1.60;;;;;;;27.01;41.71;101495.41;3598324;39;20054;-63
2022/08/02 09:13:53;;;;;;;1.40;1.30;;;;;;;27.03;40.58;101486.97;3595324;39;20063;-62
2022/08/02 09:16:38;;;;;;;2.95;1.35;;;;;;;27.15;40.21;101476.34;3597201;39;20066;-62
2022/08/02 09:19:24;;;;;;;2.83;1.40;;;;;;;27.46;39.19;101477.03;3594964;39;20056;-63
2022/08/02 09:22:11;;;;;;;2.20;1.73;;;;;;;27.70;39.28;101475.91;3597147;39;20043;-63
2022/08/02 09:24:46;;;;;;;8.02;1.67;;;;;;;28.00;38.33;101474.00;3598573;39;20128;-63
2022/08/02 09:27:16;;;;;;;3.85;1.80;;;;;;;28.11;37.40;101480.91;3584153;39;20055;-62
2022/08/02 09:29:48;;;;;;;1.98;1.40;;;;;;;28.18;37.27;101490.13;3598681;39;20148;-63
2022/08/02 09:32:15;;;;;;;2.83;1.20;;;;;;;28.28;34.78;101481.53;3592409;39;20047;-63
2022/08/02 09:34:46;;;;;;;2.28;1.13;;;;;;;28.34;33.88;101491.81;3592251;39;20427;-62
2022/08/02 09:37:29;;;;;;;1.33;1.20;;;;;;;28.37;34.91;101485.88;3593055;39;20051;-63
2022/08/02 09:40:02;;;;;;;1.55;1.45;;;;;;;28.50;33.36;101489.88;3596657;39;20337;-63
2022/08/02 09:42:28;;;;;;;2.17;1.38;;;;;;;28.46;33.50;101481.97;3590558;39;20402;-64
2022/08/02 09:45:00;;;;;;;1.50;1.23;;;;;;;28.47;33.23;101480.06;3594669;39;20043;-64
2022/08/02 09:47:27;;;;;;;1.15;1.05;;;;;;;28.61;33.65;101476.38;3596115;39;20055;-62
2022/08/02 09:49:55;;;;;;;2.72;1.20;;;;;;;28.81;34.04;101482.09;3597867;39;20346;-62
2022/08/02 09:52:31;;;;;;;2.95;1.42;;;;;;;29.04;33.49;101494.88;3597347;39;20055;-62
2022/08/02 09:55:06;;;;;;;2.25;1.23;;;;;;;29.14;32.18;101482.38;3590666;39;20062;-63
2022/08/02 09:57:32;;;;;;;1.98;1.20;;;;;;;29.21;32.78;101490.78;3597000;39;20047;-63
2022/08/02 09:59:59;;;;;;;2.05;1.20;;;;;;;29.19;31.58;101484.56;3591239;39;20082;-63
2022/08/02 10:02:25;;;;;;;1.80;1.10;;;;;;;29.32;31.78;101484.66;3596406;39;20090;-63
2022/08/02 10:04:51;;;;;;;2.70;1.02;;;;;;;29.40;32.88;101480.88;3591186;39;20062;-65
2022/08/02 10:07:18;;;;;;;2.03;1.25;;;;;;;29.53;32.30;101480.13;3596840;39;20349;-63
2022/08/02 10:09:45;;;;;;;3.28;1.25;;;;;;;29.50;31.09;101483.31;3597958;39;20458;-64
2022/08/02 10:12:12;;;;;;;1.63;1.10;;;;;;;29.64;31.23;101478.72;3596008;39;20417;-63
2022/08/02 10:14:38;;;;;;;1.63;1.23;;;;;;;29.76;31.62;101480.69;3592960;39;20087;-64
2022/08/02 10:17:06;;;;;;;3.47;1.08;;;;;;;29.78;30.60;101467.50;3597302;39;20050;-63
2022/08/02 10:19:34;;;;;;;2.90;1.45;;;;;;;30.03;32.06;101475.25;3600053;39;20047;-63
2022/08/02 10:22:09;;;;;;;1.70;1.20;;;;;;;30.12;29.53;101474.00;3595395;39;20055;-63
2022/08/02 10:24:38;;;;;;;2.22;1.40;;;;;;;30.02;30.81;101468.84;3587739;39;20063;-62
2022/08/02 10:27:14;;;;;;;0.80;0.80;;;;;;;29.82;30.42;101479.03;3596342;39;20140;-64
2022/08/02 10:29:44;;;;;;;0.85;0.77;;;;;;;29.92;30.98;101470.31;3593439;39;20588;-63
2022/08/02 10:32:20;;;;;;;1.40;1.30;;;;;;;30.03;30.56;101458.63;3585596;39;20332;-63
2022/08/02 10:35:08;;;;;;;3.45;0.95;;;;;;;30.11;29.99;101461.22;3590484;39;20084;-64
2022/08/02 10:37:38;;;;;;;4.55;1.10;;;;;;;30.18;30.58;101455.69;3594893;39;20310;-63
2022/08/02 10:40:21;;;;;;;4.45;1.15;;;;;;;30.18;30.45;101427.94;3594175;39;20251;-63
2022/08/02 10:42:58;;;;;;;2.47;1.13;;;;;;;30.16;29.93;101463.34;3593640;39;20450;-63
2022/08/02 10:45:24;;;;;;;1.95;1.45;;;;;;;29.88;29.79;101467.09;3592677;39;20091;-63
2022/08/02 10:48:11;;;;;;;1.77;0.95;;;;;;;29.68;31.24;101449.50;3594334;39;20059;-63
2022/08/02 10:50:45;;;;;;;5.38;1.27;;;;;;;29.64;30.59;101456.53;3592757;39;20058;-63
2022/08/02 10:53:32;;;;;;;1.98;1.08;;;;;;;29.01;31.39;101359.63;3595183;39;20204;-63
2022/08/02 10:56:04;;;;;;;2.13;1.00;;;;;;;29.68;31.12;101455.91;3592853;39;20248;-63
2022/08/02 10:58:32;;;;;;;5.63;1.20;;;;;;;29.86;31.00;101469.22;3597021;39;20475;-63
2022/08/02 11:01:05;;;;;;;1.00;0.95;;;;;;;30.15;30.43;101459.72;3595290;39;20061;-63
2022/08/02 11:03:32;;;;;;;2.22;1.10;;;;;;;30.30;29.52;101459.59;3593859;39;20047;-63
2022/08/02 11:06:05;;;;;;;2.55;0.88;;;;;;;30.47;29.38;101460.91;3596723;39;20099;-63
2022/08/02 11:08:32;;;;;;;1.92;1.10;;;;;;;30.57;29.45;101454.06;3596613;39;20129;-63
2022/08/02 11:11:13;;;;;;;1.58;0.90;;;;;;;30.71;29.50;101453.03;3595162;39;20052;-63
2022/08/02 11:14:07;;;;;;;1.13;1.00;;;;;;;30.74;27.90;101461.78;3597094;39;20063;-67
2022/08/02 11:16:54;;;;;;;3.03;1.25;;;;;;;30.92;28.83;101451.97;3593251;39;20047;-63
2022/08/02 11:19:21;;;;;;;2.13;0.93;;;;;;;30.73;28.15;101414.78;3597797;39;20051;-64
2022/08/02 11:22:08;;;;;;;1.98;1.08;;;;;;;30.87;28.58;101460.97;3594026;39;20473;-63
2022/08/02 11:24:37;;;;;;;4.03;0.70;;;;;;;30.99;28.29;101447.31;3591833;39;20056;-65
2022/08/02 11:27:19;;;;;;;1.45;0.77;;;;;;;31.16;27.21;101454.09;3596037;39;20051;-63
2022/08/02 11:29:49;;;;;;;3.20;0.97;;;;;;;31.17;27.21;101438.28;3592136;39;20267;-63
2022/08/02 11:32:19;;;;;;;3.00;1.00;;;;;;;31.13;27.09;101443.44;3594489;39;20074;-63
2022/08/02 11:34:50;;;;;;;1.15;1.08;;;;;;;30.87;27.70;101443.47;3592994;39;20401;-63
2022/08/02 11:37:41;;;;;;;1.50;0.90;;;;;;;30.48;26.96;101442.31;3592027;39;20049;-63
2022/08/02 11:40:10;;;;;;;1.38;1.10;;;;;;;30.27;28.26;101444.22;3592609;39;20055;-63
2022/08/02 11:42:43;;;;;;;7.03;1.30;;;;;;;30.12;27.97;101413.00;3597165;39;20213;-63